Home > Products > Valid Products > TAF

000
FTUS41 KBGM 200500
TAFAVP
TAF
KAVP 200533Z 2006/2106 10004KT P6SM BKN200
     FM201400 22008KT P6SM SCT100 BKN200
     FM202000 18005KT P6SM OVC100=



000
FTUS41 KBGM 200500
TAFITH
TAF
KITH 200533Z 2006/2106 18005KT P6SM BKN200
     FM201300 18010KT P6SM OVC100
     FM202300 16006KT P6SM OVC050 PROB30 2102/2106 5SM -SHRA BR=



000
FTUS41 KBGM 200500
TAFELM
TAF
KELM 200533Z 2006/2106 VRB03KT P6SM BKN200
     FM201400 21008KT P6SM BKN100 OVC200
     FM202200 VRB04KT P6SM OVC050 PROB30 2102/2106 5SM -SHRA BR=



000
FTUS41 KBGM 200500
TAFBGM
TAF
KBGM 200533Z 2006/2106 23006KT P6SM BKN200
     FM201300 21010KT P6SM OVC100
     FM202300 17007KT P6SM OVC050=



000
FTUS41 KBGM 200500
TAFSYR
TAF
KSYR 200533Z 2006/2106 25005KT P6SM BKN200
     FM201100 21008KT P6SM OVC120
     FM202100 19010KT P6SM OVC060 PROB30 2103/2106 5SM -SHRA BR=



000
FTUS41 KBGM 192300
TAFITH
TAF
KITH 192320Z 2000/2024 34005KT P6SM BKN200
     FM200700 18005KT P6SM BKN200
     FM201600 18010KT P6SM OVC100=



000
FTUS41 KBGM 192300
TAFBGM
TAF
KBGM 192320Z 2000/2024 33007KT P6SM BKN200
     FM200600 22003KT P6SM BKN200
     FM201500 21010KT P6SM OVC100=



000
FTUS41 KBGM 192300
TAFITH
TAF
KITH 192320Z 2000/2024 34005KT P6SM BKN200
     FM200700 18005KT P6SM BKN200
     FM201600 18010KT P6SM OVC100=



000
FTUS41 KBGM 192300
TAFSYR
TAF
KSYR 192320Z 2000/2024 27010KT P6SM SCT040 BKN200
     FM201200 18006KT P6SM OVC120
     FM201600 20010KT P6SM OVC070=



000
FTUS41 KBGM 192300
TAFAVP
TAF
KAVP 192320Z 2000/2024 34003KT P6SM BKN200
     FM201400 23007KT P6SM BKN200
     FM202000 23010KT P6SM OVC100=



000
FTUS41 KBGM 192300
TAFELM
TAF
KELM 192320Z 2000/2024 VRB03KT P6SM BKN200
     FM201400 18003KT P6SM BKN200
     FM201800 22010KT P6SM OVC100=



000
FTUS41 KBGM 192300
TAFBGM
TAF
KBGM 192320Z 2000/2024 33007KT P6SM BKN200
     FM200600 22003KT P6SM BKN200
     FM201500 21010KT P6SM OVC100=



000
FTUS41 KBGM 192300
TAFSYR
TAF
KSYR 192320Z 2000/2024 27010KT P6SM SCT040 BKN200
     FM201200 18006KT P6SM OVC120
     FM201600 20010KT P6SM OVC070=



000
FTUS41 KBGM 192300
TAFELM
TAF
KELM 192320Z 2000/2024 VRB03KT P6SM BKN200
     FM201400 18003KT P6SM BKN200
     FM201800 22010KT P6SM OVC100=



000
FTUS41 KBGM 192300
TAFAVP
TAF
KAVP 192320Z 2000/2024 34003KT P6SM BKN200
     FM201400 23007KT P6SM BKN200
     FM202000 23010KT P6SM OVC100=



000
FTUS41 KBGM 192000 AAA
TAFITH
TAF AMD
KITH 192025Z 1920/2018 32012KT P6SM SCT025 BKN035
     FM192200 27005KT P6SM FEW035 BKN200
     FM200600 18005KT P6SM OVC100
     FM201500 19010KT P6SM OVC100=



000
FTUS41 KBGM 192000 AAA
TAFSYR
TAF AMD
KSYR 192025Z 1920/2018 31012KT P6SM SCT035 OVC045
     FM200000 26008KT P6SM SCT035 BKN200
     FM200700 16005KT P6SM OVC100
     FM201400 19010KT P6SM OVC100=



000
FTUS41 KBGM 191700
TAFAVP
TAF
KAVP 191732Z 1918/2018 32012G22KT P6SM SCT025 BKN040
     FM192000 32008KT P6SM SCT045
     FM200100 28005KT P6SM BKN200
     FM201000 VRB03KT P6SM OVC100
     FM201600 22006KT P6SM OVC100=



000
FTUS41 KBGM 191700
TAFSYR
TAF
KSYR 191732Z 1918/2018 31012G22KT P6SM SCT035 OVC045
     FM200000 26008KT P6SM SCT035 BKN200
     FM200700 16005KT P6SM OVC100
     FM201400 19010KT P6SM OVC100=



000
FTUS41 KBGM 191700
TAFELM
TAF
KELM 191732Z 1918/2018 31010G20KT P6SM FEW025 OVC040
     FM192100 29008KT P6SM SCT050
     FM200000 VRB03KT P6SM BKN200
     FM200900 VRB03KT P6SM OVC100
     FM201500 20009KT P6SM OVC100=



000
FTUS41 KBGM 191700
TAFITH
TAF
KITH 191732Z 1918/2018 32012G22KT P6SM SCT025 BKN035
     FM192200 27005KT P6SM FEW035 BKN200
     FM200600 18005KT P6SM OVC100
     FM201500 19010KT P6SM OVC100=



000
FTUS41 KBGM 191700
TAFBGM
TAF
KBGM 191732Z 1918/2018 31012G22KT P6SM SCT025 OVC035
      TEMPO 1918/1920 OVC025
     FM192300 27005KT P6SM BKN200
     FM200900 19005KT P6SM OVC100
     FM201500 20010KT P6SM OVC100=



000
FTUS41 KBGM 191400 AAB
TAFSYR
TAF AMD
KSYR 191442Z 1915/2012 31012G22KT P6SM SCT025 OVC035
     FM191900 31012G22KT P6SM SCT025 OVC035
     FM192300 26008KT P6SM SCT035 BKN200
     FM200600 16005KT P6SM BKN200=



000
FTUS41 KBGM 191200 AAA
TAFAVP
TAF AMD
KAVP 191218Z 1912/2012 32008KT P6SM OVC045
      TEMPO 1912/1913 OVC025
     FM191400 32012G22KT P6SM SCT025 BKN040
     FM192000 32010G20KT P6SM SCT045
     FM200100 28005KT P6SM BKN200
     FM200600 VRB03KT P6SM BKN200=



000
FTUS41 KBGM 191200 AAA
TAFBGM
TAF AMD
KBGM 191218Z 1912/2012 32012G22KT P6SM SCT012 OVC025
     FM191700 31012G22KT P6SM SCT025 BKN035
     FM192300 27005KT P6SM FEW035 BKN200
     FM200600 19005KT P6SM BKN200=



000
FTUS41 KBGM 191200 AAA
TAFITH
TAF AMD
KITH 191217Z 1912/2012 33010KT P6SM -SHRA SCT008 OVC025
     FM191400 32012G22KT P6SM SCT012 OVC025
     FM191800 31012G22KT P6SM SCT025 BKN035
     FM192300 27005KT P6SM FEW035 BKN200
     FM200600 18005KT P6SM BKN200=



000
FTUS41 KBGM 191200 AAA
TAFELM
TAF AMD
KELM 191217Z 1912/2012 31010G20KT P6SM FEW025 BKN050
     FM192000 30008KT P6SM SCT050
     FM200000 VRB03KT P6SM BKN200=



000
FTUS41 KBGM 191200 AAA
TAFSYR
TAF AMD
KSYR 191216Z 1912/2012 31012G22KT P6SM SCT015 OVC025
     FM191900 31012G22KT P6SM SCT025 OVC035
     FM192300 26008KT P6SM SCT035 BKN200
     FM200600 16005KT P6SM BKN200=



000
FTUS41 KBGM 191100
TAFSYR
TAF
KSYR 191135Z 1912/2012 32010KT P6SM -SHRA SCT012 OVC025
      TEMPO 1912/1913 OVC012
     FM191300 31012G22KT P6SM SCT015 OVC025
     FM191900 31012G22KT P6SM SCT025 OVC035
     FM192300 26008KT P6SM SCT035 BKN200
     FM200600 16005KT P6SM BKN200=



000
FTUS41 KBGM 191100
TAFBGM
TAF
KBGM 191135Z 1912/2012 32010KT P6SM -SHRA SCT008 OVC015
      TEMPO 1912/1913 OVC008
     FM191300 32012G22KT P6SM SCT012 OVC025
      TEMPO 1913/1915 -SHRA OVC015
     FM191700 31012G22KT P6SM SCT025 BKN035
     FM192300 27005KT P6SM FEW035 BKN200
     FM200600 19005KT P6SM BKN200=



000
FTUS41 KBGM 191100
TAFAVP
TAF
KAVP 191135Z 1912/2012 32008KT P6SM OVC025
     FM191400 32012G22KT P6SM SCT025 BKN040
     FM192000 32010G20KT P6SM SCT045
     FM200100 28005KT P6SM BKN200
     FM200600 VRB03KT P6SM BKN200=



000
FTUS41 KBGM 191100
TAFITH
TAF
KITH 191135Z 1912/2012 33010KT P6SM -SHRA SCT008 OVC015
      TEMPO 1912/1913 5SM -SHRA BR OVC008
     FM191400 32012G22KT P6SM SCT012 OVC025
     FM191800 31012G22KT P6SM SCT025 BKN035
     FM192300 27005KT P6SM FEW035 BKN200
     FM200600 18005KT P6SM BKN200=



000
FTUS41 KBGM 191100
TAFELM
TAF
KELM 191135Z 1912/2012 32008KT P6SM -SHRA OVC025
      TEMPO 1912/1913 SCT025 OVC040
     FM191300 31010G20KT P6SM FEW025 BKN050
     FM192000 30008KT P6SM SCT050
     FM200000 VRB03KT P6SM BKN200=



000
FTUS41 KBGM 191000 AAB
TAFBGM
TAF AMD
KBGM 191042Z 1911/2006 32010G16KT P6SM -SHRA OVC008
     FM191300 32010G17KT P6SM -SHRA OVC012
     FM191600 32012G20KT P6SM SCT012 OVC025
     FM191800 31012G20KT P6SM SCT025 BKN035
     FM192300 27005KT P6SM FEW035 BKN200=



000
FTUS41 KBGM 191000 AAB
TAFBGM
TAF AMD
KBGM 191042Z 1911/2006 32010G16KT P6SM -SHRA OVC008
     FM191300 32010G17KT P6SM -SHRA OVC012
     FM191600 32012G20KT P6SM SCT012 OVC025
     FM191800 31012G20KT P6SM SCT025 BKN035
     FM192300 27005KT P6SM FEW035 BKN200=



000
FTUS41 KBGM 190800 AAA
TAFELM
TAF AMD
KELM 190842Z 1909/2006 32008KT P6SM -SHRA OVC025
      TEMPO 1909/1913 SCT025 OVC040
     FM191300 31010G20KT P6SM FEW025 BKN050
     FM192000 30008KT P6SM SCT050
     FM200000 VRB03KT P6SM BKN200=



000
FTUS41 KBGM 190800 AAA
TAFBGM
TAF AMD
KBGM 190842Z 1909/2006 32010KT P6SM -SHRA SCT008 OVC015
      TEMPO 1909/1913 OVC008
     FM191300 32012G22KT P6SM SCT012 OVC025
     FM191700 31012G22KT P6SM SCT025 BKN035
     FM192300 27005KT P6SM FEW035 BKN200=



000
FTUS41 KBGM 190800 AAA
TAFAVP
TAF AMD
KAVP 190842Z 1909/2006 32008KT P6SM OVC025
      TEMPO 1909/1912 OVC015
     FM191400 32012G22KT P6SM SCT025 BKN040
     FM192000 32010G20KT P6SM SCT045
     FM200100 28005KT P6SM BKN200=



000
FTUS41 KBGM 190800 AAA
TAFSYR
TAF AMD
KSYR 190842Z 1909/2006 32010KT P6SM -SHRA SCT012 OVC025
      TEMPO 1909/1913 OVC012
     FM191300 31012G22KT P6SM SCT015 OVC025
     FM191900 31012G22KT P6SM SCT025 OVC035
     FM192300 26008KT P6SM SCT035 BKN200=



000
FTUS41 KBGM 190800 AAA
TAFITH
TAF AMD
KITH 190842Z 1909/2006 33010KT P6SM -SHRA SCT008 OVC015
      TEMPO 1909/1913 3SM -SHRA BR OVC008
     FM191400 32012G22KT P6SM SCT012 OVC025
     FM191800 31012G22KT P6SM SCT025 BKN035
     FM192300 27005KT P6SM FEW035 BKN200=



000
FTUS41 KBGM 190500
TAFAVP
TAF
KAVP 190523Z 1906/2006 32008KT P6SM OVC025
      TEMPO 1906/1910 OVC015
     FM191400 32012G22KT P6SM SCT025 BKN040
     FM192000 32010G20KT P6SM SCT045
     FM200100 28005KT P6SM BKN200=



000
FTUS41 KBGM 190500
TAFSYR
TAF
KSYR 190523Z 1906/2006 32010KT P6SM -SHRA SCT008 OVC015
      TEMPO 1906/1910 OVC008
     FM191300 31012G22KT P6SM SCT015 OVC025
     FM191900 31012G22KT P6SM SCT025 OVC035
     FM192300 26008KT P6SM SCT035 BKN200=



000
FTUS41 KBGM 190500
TAFELM
TAF
KELM 190523Z 1906/2006 32008KT P6SM -SHRA OVC025
      TEMPO 1909/1913 SCT025 OVC040
     FM191300 31010G20KT P6SM FEW025 BKN050
     FM192000 30008KT P6SM SCT050
     FM200000 VRB03KT P6SM BKN200=



000
FTUS41 KBGM 190500
TAFITH
TAF
KITH 190523Z 1906/2006 33010KT P6SM -SHRA SCT008 OVC015
      TEMPO 1906/1910 3SM -SHRA BR OVC008
     FM191400 32012G22KT P6SM SCT012 OVC025
     FM191800 31012G22KT P6SM SCT025 BKN035
     FM192300 27005KT P6SM FEW035 BKN200=



000
FTUS41 KBGM 190500
TAFBGM
TAF
KBGM 190523Z 1906/2006 32010KT P6SM -SHRA SCT008 OVC015
      TEMPO 1906/1910 OVC008
     FM191300 32012G22KT P6SM SCT012 OVC025
     FM191700 31012G22KT P6SM SCT025 BKN035
     FM192300 27005KT P6SM FEW035 BKN200=



000
FTUS41 KBGM 190100 AAA
TAFAVP
TAF AMD
KAVP 190151Z 1902/1924 31008KT P6SM OVC025
      TEMPO 1905/1909 -SHRA OVC018
     FM190900 31011KT P6SM OVC018
     FM191400 31012G20KT P6SM BKN025
     FM191700 32012G20KT P6SM FEW025 SCT035=



000
FTUS41 KBGM 182300
TAFAVP
TAF
KAVP 182340Z 1900/1924 30009KT P6SM FEW025 BKN035
     FM190300 31009KT P6SM OVC025
      TEMPO 1905/1909 -SHRA OVC018
     FM190900 31011KT P6SM OVC018
     FM191400 31012G20KT P6SM BKN025
     FM191700 32012G20KT P6SM FEW025 SCT035=



000
FTUS41 KBGM 182300
TAFELM
TAF
KELM 182340Z 1900/1924 30009KT P6SM FEW018 BKN025
      TEMPO 1902/1906 -SHRA OVC018
     FM190600 31010KT P6SM -SHRA OVC018
     FM191500 31012G20KT P6SM BKN025
     FM191900 31010G18KT P6SM SCT035=



000
FTUS41 KBGM 182300
TAFITH
TAF
KITH 182340Z 1900/1924 32014KT P6SM -SHRA OVC012
      TEMPO 1902/1906 5SM -SHRA OVC009
     FM190600 31012KT P6SM -SHRA OVC007
     FM191300 31014KT P6SM -SHRA OVC012
     FM191800 31010G18KT P6SM BKN020
     FM192300 31006KT P6SM SCT025=



000
FTUS41 KBGM 182300
TAFSYR
TAF
KSYR 182340Z 1900/1924 31010KT P6SM -SHRA FEW009 OVC015
      TEMPO 1900/1903 2SM -SHRA OVC009
     FM191400 31012G18KT P6SM SCT015 OVC025
     FM191900 31010G16KT P6SM BKN035=



000
FTUS41 KBGM 182300
TAFBGM
TAF
KBGM 182340Z 1900/1924 32014KT P6SM -SHRA BKN012
      TEMPO 1900/1904 5SM -SHRA OVC009
     FM190400 32012KT P6SM -SHRA OVC009
     FM191000 32012KT P6SM -SHRA SCT009 OVC012
     FM191400 32012G20KT P6SM BKN015 OVC025
     FM191700 32012G20KT P6SM BKN025=



000
FTUS41 KBGM 182100 AAA
TAFAVP
TAF AMD
KAVP 182123Z 1821/1918 27010KT P6SM SCT025 OVC040
      TEMPO 1821/1824 -SHRA
     FM190000 32012KT P6SM OVC025
      TEMPO 1906/1910 -SHRA OVC015
     FM191400 32012G20KT P6SM SCT025 OVC035=



000
FTUS41 KBGM 182100 AAA
TAFELM
TAF AMD
KELM 182122Z 1821/1918 26010G16KT P6SM -SHRA SCT025 BKN035
     FM182300 31010KT P6SM -SHRA SCT015 OVC025
     FM191400 31012G22KT P6SM BKN025=



000
FTUS41 KBGM 182100 AAA
TAFSYR
TAF AMD
KSYR 182121Z 1821/1918 30011KT P6SM -SHRA SCT015 OVC025
      TEMPO 1821/1824 2SM -SHRA OVC009
     FM190000 31014KT P6SM -SHRA OVC015
     FM191400 31012G20KT P6SM SCT015 OVC025=



000
FTUS41 KBGM 181800 AAA
TAFBGM
TAF AMD
KBGM 181803Z 1818/1918 31010G16KT P6SM SCT025 BKN035
      TEMPO 1819/1822 -SHRA BKN025 OVC035
     FM182200 31012G18KT P6SM -SHRA SCT015 OVC025
     FM190100 32014KT P6SM -SHRA SCT009 OVC015
     FM191400 32014G20KT P6SM OVC015=



000
FTUS41 KBGM 181700
TAFSYR
TAF
KSYR 181728Z 1818/1918 29014G22KT P6SM -SHRA SCT015 OVC025
     FM182300 31014KT P6SM -SHRA OVC015
     FM191400 31012G20KT P6SM SCT015 OVC025=



000
FTUS41 KBGM 181700
TAFELM
TAF
KELM 181728Z 1818/1918 26010G16KT P6SM -SHRA SCT025 BKN035
      TEMPO 1820/1822 -SHRA BKN025 OVC035
     FM182200 31010KT P6SM -SHRA SCT015 OVC025
     FM191400 31012G22KT P6SM BKN025=



000
FTUS41 KBGM 181700
TAFBGM
TAF
KBGM 181728Z 1818/1918 28010G16KT P6SM SCT025 BKN035
      TEMPO 1819/1822 -SHRA BKN025 OVC035
     FM182200 30012G18KT P6SM -SHRA SCT015 OVC025
     FM190100 32014KT P6SM -SHRA SCT009 OVC015
     FM191400 32014G20KT P6SM OVC015=



000
FTUS41 KBGM 181700
TAFAVP
TAF
KAVP 181728Z 1818/1918 30010G16KT P6SM SCT025 OVC040
      TEMPO 1818/1822 -SHRA
     FM190000 32012KT P6SM OVC025
      TEMPO 1906/1910 -SHRA OVC015
     FM191400 32012G20KT P6SM SCT025 OVC035=



000
FTUS41 KBGM 181700
TAFITH
TAF
KITH 181728Z 1818/1918 29012KT P6SM SCT015 OVC025
      TEMPO 1818/1822 -SHRA BKN015 OVC025
     FM182200 30012KT P6SM -SHRA SCT007 OVC012
     FM190600 32012KT 5SM -SHRA BKN007 OVC012
     FM191400 31012G18KT P6SM OVC015=



000
FTUS41 KBGM 181500 AAC
TAFBGM
TAF AMD
KBGM 181543Z 1816/1912 27010G16KT P6SM SCT025 OVC035
      TEMPO 1816/1820 -SHRA BKN025 OVC035
     FM182000 30012KT P6SM SCT015 OVC025
     FM190000 31010KT P6SM OVC015=



000
FTUS41 KBGM 181500 AAC
TAFBGM
TAF AMD
KBGM 181543Z 1816/1912 27010G16KT P6SM SCT025 OVC035
      TEMPO 1816/1820 -SHRA BKN025 OVC035
     FM182000 30012KT P6SM SCT015 OVC025
     FM190000 31010KT P6SM OVC015=



000
FTUS41 KBGM 181500 AAB
TAFITH
TAF AMD
KITH 181527Z 1815/1912 28010G16KT P6SM SCT015 OVC025
      TEMPO 1815/1819 -SHRA BKN015 OVC025
     FM182100 32015G25KT P6SM -SHRA OVC012=



000
FTUS41 KBGM 181400 AAB
TAFBGM
TAF AMD
KBGM 181428Z 1814/1912 25008KT P6SM SCT025 OVC040
      TEMPO 1814/1818 -SHRA BKN025 OVC035
     FM181800 26012G22KT P6SM -SHRA OVC025
     FM182200 32015G25KT P6SM -SHRA OVC015=



000
FTUS41 KBGM 181400 AAA
TAFAVP
TAF AMD
KAVP 181414Z 1814/1912 26012G20KT P6SM SCT025 OVC040
     FM182300 32012G22KT P6SM OVC025=



000
FTUS41 KBGM 181400 AAA
TAFBGM
TAF AMD
KBGM 181413Z 1814/1912 25008KT P6SM -SHRA SCT025 OVC040
     FM181800 26012G22KT P6SM -SHRA OVC025
     FM182200 32015G25KT P6SM -SHRA OVC015=



000
FTUS41 KBGM 181400 AAA
TAFELM
TAF AMD
KELM 181412Z 1814/1912 26010G16KT P6SM -SHRA SCT025 OVC035
     FM182100 31012G22KT P6SM OVC025=



000
FTUS41 KBGM 181400 AAA
TAFITH
TAF AMD
KITH 181412Z 1814/1912 28010G16KT P6SM -SHRA SCT015 OVC025
     FM182100 32015G25KT P6SM -SHRA OVC012=



000
FTUS41 KBGM 181100
TAFELM
TAF
KELM 181130Z 1812/1912 23005KT P6SM -SHRA SCT025 OVC045
     FM181400 26012G22KT P6SM -SHRA SCT025 OVC035
     FM182100 31012G22KT P6SM OVC025=



000
FTUS41 KBGM 181100
TAFELM
TAF
KELM 181130Z 1812/1912 23005KT P6SM -SHRA SCT025 OVC045
     FM181400 26012G22KT P6SM -SHRA SCT025 OVC035
     FM182100 31012G22KT P6SM OVC025=



000
FTUS41 KBGM 181100
TAFBGM
TAF
KBGM 181130Z 1812/1912 24008KT P6SM -SHRA SCT025 OVC040
     FM181400 26012G22KT P6SM -SHRA OVC025
     FM182100 32015G25KT P6SM -SHRA OVC015=



000
FTUS41 KBGM 181100
TAFSYR
TAF
KSYR 181130Z 1812/1912 23008KT P6SM -SHRA SCT025 OVC045
     FM181500 26012G22KT P6SM -SHRA OVC025
     FM182100 32015G25KT P6SM -SHRA OVC015=



000
FTUS41 KBGM 181100
TAFSYR
TAF
KSYR 181130Z 1812/1912 23008KT P6SM -SHRA SCT025 OVC045
     FM181500 26012G22KT P6SM -SHRA OVC025
     FM182100 32015G25KT P6SM -SHRA OVC015=



000
FTUS41 KBGM 181100
TAFITH
TAF
KITH 181130Z 1812/1912 24005KT P6SM -SHRA SCT025 OVC035
      TEMPO 1812/1814 5SM -SHRA OVC025
     FM181400 26012G22KT P6SM -SHRA OVC025
     FM182100 32015G25KT P6SM -SHRA OVC012=



000
FTUS41 KBGM 181100
TAFAVP
TAF
KAVP 181130Z 1812/1912 22005KT P6SM SCT040 OVC070
      TEMPO 1812/1816 OVC040
     FM181600 26012G22KT P6SM SCT025 OVC040
     FM182300 32012G22KT P6SM OVC025=



000
FTUS41 KBGM 181100
TAFBGM
TAF
KBGM 181130Z 1812/1912 24008KT P6SM -SHRA SCT025 OVC040
     FM181400 26012G22KT P6SM -SHRA OVC025
     FM182100 32015G25KT P6SM -SHRA OVC015=



000
FTUS41 KBGM 181100
TAFITH
TAF
KITH 181130Z 1812/1912 24005KT P6SM -SHRA SCT025 OVC035
      TEMPO 1812/1814 5SM -SHRA OVC025
     FM181400 26012G22KT P6SM -SHRA OVC025
     FM182100 32015G25KT P6SM -SHRA OVC012=



000
FTUS41 KBGM 181100
TAFAVP
TAF
KAVP 181130Z 1812/1912 22005KT P6SM SCT040 OVC070
      TEMPO 1812/1816 OVC040
     FM181600 26012G22KT P6SM SCT025 OVC040
     FM182300 32012G22KT P6SM OVC025=



000
FTUS41 KBGM 180800 AAA
TAFSYR
TAF AMD
KSYR 180859Z 1809/1906 23008KT P6SM SCT025 OVC045
      TEMPO 1809/1813 -SHRA OVC025
     FM181300 26012G22KT P6SM -SHRA OVC025
     FM182100 32015G25KT P6SM -SHRA OVC015=



000
FTUS41 KBGM 180800 AAA
TAFBGM
TAF AMD
KBGM 180859Z 1809/1906 23008KT P6SM SCT025 OVC045
      TEMPO 1809/1813 -SHRA OVC025
     FM181300 26012G22KT P6SM -SHRA OVC025
     FM182100 32015G25KT P6SM -SHRA OVC015=



000
FTUS41 KBGM 180800 AAA
TAFELM
TAF AMD
KELM 180859Z 1809/1906 23005KT P6SM FEW025 OVC045
      TEMPO 1809/1813 -SHRA OVC025
     FM181300 26012G22KT P6SM -SHRA SCT025 OVC035
     FM182200 31012G22KT P6SM -SHRA OVC025=



000
FTUS41 KBGM 180800 AAA
TAFAVP
TAF AMD
KAVP 180859Z 1809/1906 22005KT P6SM SCT040 BKN070
      TEMPO 1810/1814 -SHRA OVC040
     FM181400 26012G22KT P6SM SCT025 OVC040
     FM182300 32012G22KT P6SM OVC025=



000
FTUS41 KBGM 180800 AAA
TAFITH
TAF AMD
KITH 180859Z 1809/1906 21005KT P6SM SCT025 OVC045
      TEMPO 1809/1813 -SHRA OVC025
     FM181300 26012G22KT P6SM -SHRA OVC025
     FM182100 32015G25KT P6SM -SHRA OVC012=



000
FTUS41 KBGM 180500 RRA
TAFSYR
TAF
KSYR 180547Z 1806/1906 23008KT P6SM SCT025 OVC045
      TEMPO 1809/1813 -SHRA OVC025
     FM181300 26012G22KT P6SM -SHRA OVC025
     FM182100 32015G25KT P6SM -SHRA OVC015=



000
FTUS41 KBGM 180500 RRA
TAFBGM
TAF
KBGM 180547Z 1806/1906 23008KT P6SM SCT025 OVC045
      TEMPO 1809/1813 -SHRA OVC025
     FM181300 26012G22KT P6SM -SHRA OVC025
     FM182100 32015G25KT P6SM -SHRA OVC015=



000
FTUS41 KBGM 180500 RRA
TAFAVP
TAF
KAVP 180547Z 1806/1906 22005KT P6SM SCT040 BKN070
      TEMPO 1810/1814 -SHRA OVC040
     FM181400 26012G22KT P6SM SCT025 OVC040
     FM182300 32012G22KT P6SM OVC025=



000
FTUS41 KBGM 180500 RRA
TAFELM
TAF
KELM 180547Z 1806/1906 23005KT P6SM FEW025 OVC045
      TEMPO 1809/1813 -SHRA OVC025
     FM181300 26012G22KT P6SM -SHRA SCT025 OVC035
     FM182200 31012G22KT P6SM -SHRA OVC025=



000
FTUS41 KBGM 180500 RRA
TAFITH
TAF
KITH 180547Z 1806/1906 21005KT P6SM SCT025 OVC045
      TEMPO 1809/1813 -SHRA OVC025
     FM181300 26012G22KT P6SM -SHRA OVC025
     FM182100 32015G25KT P6SM -SHRA OVC012=



000
FTUS41 KBGM 180300 AAA
TAFBGM
TAF AMD
KBGM 180303Z 1803/1824 21007G14KT P6SM BKN040
     FM180700 23007KT P6SM OVC035
      TEMPO 1810/1812 BKN025
     FM181200 26011KT P6SM -SHRA OVC025
     FM181500 27010G20KT P6SM OVC022=



000
FTUS41 KBGM 180000 AAA
TAFAVP
TAF AMD
KAVP 180045Z 1801/1824 21010KT P6SM SCT060
     FM180500 19005KT P6SM BKN050
     FM181500 25010KT P6SM OVC040=



000
FTUS41 KBGM 180000 AAA
TAFBGM
TAF AMD
KBGM 180044Z 1801/1824 21007G14KT P6SM BKN040
     FM180700 23007KT P6SM OVC025
      TEMPO 1810/1812 BKN025
     FM181200 26011KT P6SM -SHRA OVC025
     FM181500 27010G20KT P6SM OVC022=



000
FTUS41 KBGM 172300
TAFITH
TAF
KITH 172335Z 1800/1824 19005KT P6SM BKN050
     FM181000 20007KT P6SM -SHRA OVC035
      TEMPO 1810/1812 OVC025
     FM181400 27010KT P6SM -SHRA OVC022=



000
FTUS41 KBGM 172300
TAFITH
TAF
KITH 172335Z 1800/1824 19005KT P6SM BKN050
     FM181000 20007KT P6SM -SHRA OVC035
      TEMPO 1810/1812 OVC025
     FM181400 27010KT P6SM -SHRA OVC022=



000
FTUS41 KBGM 172300
TAFELM
TAF
KELM 172335Z 1800/1824 24003KT P6SM BKN050
     FM181100 24007KT P6SM -SHRA OVC035
     FM181400 26012G20KT P6SM -SHRA OVC035=



000
FTUS41 KBGM 172300
TAFSYR
TAF
KSYR 172335Z 1800/1824 19005KT P6SM BKN050
     FM180800 24008KT P6SM -SHRA OVC035
      TEMPO 1809/1813 BKN025
     FM181500 27010G20KT P6SM -SHRA OVC025=



000
FTUS41 KBGM 172300
TAFAVP
TAF
KAVP 172335Z 1800/1824 19004KT P6SM BKN050
     FM181500 25010KT P6SM OVC040=



000
FTUS41 KBGM 172300
TAFSYR
TAF
KSYR 172335Z 1800/1824 19005KT P6SM BKN050
     FM180800 24008KT P6SM -SHRA OVC035
      TEMPO 1809/1813 BKN025
     FM181500 27010G20KT P6SM -SHRA OVC025=



000
FTUS41 KBGM 172300
TAFBGM
TAF
KBGM 172335Z 1800/1824 21005KT P6SM BKN040
     FM180700 23007KT P6SM OVC025
      TEMPO 1810/1812 BKN025
     FM181200 26011KT P6SM -SHRA OVC025
     FM181500 27010G20KT P6SM OVC022=



000
FTUS41 KBGM 172300
TAFBGM
TAF
KBGM 172335Z 1800/1824 21005KT P6SM BKN040
     FM180700 23007KT P6SM OVC025
      TEMPO 1810/1812 BKN025
     FM181200 26011KT P6SM -SHRA OVC025
     FM181500 27010G20KT P6SM OVC022=



000
FTUS41 KBGM 172300
TAFAVP
TAF
KAVP 172335Z 1800/1824 19004KT P6SM BKN050
     FM181500 25010KT P6SM OVC040=



000
FTUS41 KBGM 172300
TAFELM
TAF
KELM 172335Z 1800/1824 24003KT P6SM BKN050
     FM181100 24007KT P6SM -SHRA OVC035
     FM181400 26012G20KT P6SM -SHRA OVC035=



000
FTUS41 KBGM 171700
TAFSYR
TAF
KSYR 171730Z 1718/1818 24010KT P6SM BKN040
     FM180000 19005KT P6SM BKN050
     FM180900 24008KT P6SM -SHRA OVC035
     FM181500 27010G20KT P6SM -SHRA OVC025=



000
FTUS41 KBGM 171700
TAFBGM
TAF
KBGM 171730Z 1718/1818 23010G18KT P6SM BKN035
     FM180000 21005KT P6SM BKN040
     FM180700 23007KT P6SM OVC025
     FM181500 27010G20KT P6SM OVC022=



000
FTUS41 KBGM 171700
TAFAVP
TAF
KAVP 171730Z 1718/1818 23008KT P6SM BKN040
     FM180000 19004KT P6SM BKN050
     FM181500 25010KT P6SM OVC040=



000
FTUS41 KBGM 171700
TAFITH
TAF
KITH 171730Z 1718/1818 21011G18KT P6SM BKN035
     FM180000 19005KT P6SM BKN050
     FM180700 20007KT P6SM -SHRA OVC015
     FM181400 27010KT P6SM -SHRA OVC022=



000
FTUS41 KBGM 171700
TAFELM
TAF
KELM 171730Z 1718/1818 24010KT P6SM BKN035
     FM180000 24003KT P6SM BKN050
     FM180700 24007KT P6SM -SHRA OVC035
     FM181400 26012G20KT P6SM -SHRA OVC035=



000
FTUS41 KBGM 171100
TAFBGM
TAF
KBGM 171131Z 1712/1812 24006KT P6SM BKN070
     FM171500 23010G18KT P6SM BKN035
     FM180000 21005KT P6SM BKN040=



000
FTUS41 KBGM 171100
TAFELM
TAF
KELM 171131Z 1712/1812 VRB03KT 6SM BR SCT100
     FM171500 24010KT P6SM BKN035
     FM180000 24003KT P6SM BKN050
      TEMPO 1809/1812 2SM BR=



000
FTUS41 KBGM 171100
TAFAVP
TAF
KAVP 171131Z 1712/1812 19003KT 5SM BR BKN025 OVC080
     FM171400 23008KT P6SM BKN040
     FM180000 19004KT P6SM BKN050=



000
FTUS41 KBGM 171100
TAFITH
TAF
KITH 171131Z 1712/1812 20006KT P6SM OVC050
     FM171500 21010G18KT P6SM BKN035
     FM180000 19005KT P6SM BKN050
     FM181000 20007KT P6SM -SHRA OVC025=



000
FTUS41 KBGM 171100
TAFSYR
TAF
KSYR 171131Z 1712/1812 22005KT P6SM BKN080
     FM171500 24010KT P6SM BKN040
     FM180000 19005KT P6SM BKN050
     FM180900 24008KT P6SM -SHRA OVC035=



000
FTUS41 KBGM 171100
TAFAVP
TAF
KAVP 171131Z 1712/1812 19003KT 5SM BR BKN025 OVC080
     FM171400 23008KT P6SM BKN040
     FM180000 19004KT P6SM BKN050=



000
FTUS41 KBGM 171100
TAFSYR
TAF
KSYR 171131Z 1712/1812 22005KT P6SM BKN080
     FM171500 24010KT P6SM BKN040
     FM180000 19005KT P6SM BKN050
     FM180900 24008KT P6SM -SHRA OVC035=



000
FTUS41 KBGM 171100
TAFBGM
TAF
KBGM 171131Z 1712/1812 24006KT P6SM BKN070
     FM171500 23010G18KT P6SM BKN035
     FM180000 21005KT P6SM BKN040=



000
FTUS41 KBGM 171100
TAFITH
TAF
KITH 171131Z 1712/1812 20006KT P6SM OVC050
     FM171500 21010G18KT P6SM BKN035
     FM180000 19005KT P6SM BKN050
     FM181000 20007KT P6SM -SHRA OVC025=



000
FTUS41 KBGM 171100
TAFELM
TAF
KELM 171131Z 1712/1812 VRB03KT 6SM BR SCT100
     FM171500 24010KT P6SM BKN035
     FM180000 24003KT P6SM BKN050
      TEMPO 1809/1812 2SM BR=



000
FTUS41 KBGM 171000 AAC
TAFELM
TAF AMD
KELM 171030Z 1711/1806 VRB03KT 5SM BR SCT100
     FM171500 24010G18KT P6SM BKN060
     FM180000 24003KT P6SM BKN050=



000
FTUS41 KBGM 170800 AAB
TAFELM
TAF AMD
KELM 170834Z 1709/1806 VRB03KT 5SM BR SCT070
      TEMPO 1709/1713 1SM BR
     FM171500 24010G18KT P6SM BKN060
     FM180000 24003KT P6SM BKN050=



000
FTUS41 KBGM 170800 AAA
TAFAVP
TAF AMD
KAVP 170834Z 1709/1806 19003KT 5SM BR BKN060
     FM171500 23008G16KT P6SM SCT030
     FM180000 19004KT P6SM SCT050=



000
FTUS41 KBGM 170800 AAA
TAFBGM
TAF AMD
KBGM 170834Z 1709/1806 24006KT P6SM BKN070
     FM171500 23010G18KT P6SM BKN040
     FM180000 21005KT P6SM BKN050=



000
FTUS41 KBGM 170800 AAA
TAFSYR
TAF AMD
KSYR 170834Z 1709/1806 22005KT P6SM BKN060
     FM171300 24010G18KT P6SM BKN040
     FM180000 19005KT P6SM BKN040=



000
FTUS41 KBGM 170800 AAA
TAFITH
TAF AMD
KITH 170834Z 1709/1806 21006KT P6SM SCT020 OVC050
      TEMPO 1709/1713 OVC020
     FM171500 21010G18KT P6SM BKN035
     FM180000 19005KT P6SM BKN050=



    US Dept of Commerce
    National Oceanic and Atmospheric Administration
    National Weather Service
    1325 East West Highway
    Silver Spring, MD 20910
    Page Author: NWS Internet Services Team
Disclaimer
Information Quality
Credits
Glossary
Privacy Policy
Freedom of Information Act (FOIA)
About Us
Career Opportunities